Terminal Aerodrome Forecast
Issued by NWS

Home | Current Version | Previous Version | Text Only | Print | Product List | Glossary On
Versions: 1 2 3 4 5 6 7 8 9 10 11 12 13
749
FTUS43 KICT 231120
TAFRSL
TAF
KRSL 231120Z 2312/2412 30015G23KT P6SM FEW250 WS020/35045KT
     FM231300 32018G26KT P6SM FEW200
     FM231700 33025G34KT P6SM FEW200
     FM240100 33016G24KT P6SM SKC
     FM240600 32014KT P6SM SKC WS020/33045KT=

USA.gov is the U.S. government's official web portal to all federal, state and local government web resources and services.